sensor_id;sensor_type;location;lat;lon;timestamp;temperature;humidity
74420;DHT22;62855;50.718;-2.460;2024-03-08T00:01:07;32.90;0.00
74420;DHT22;62855;50.718;-2.460;2024-03-08T00:04:05;32.90;0.00
74420;DHT22;62855;50.718;-2.460;2024-03-08T00:07:06;32.90;0.00
74420;DHT22;62855;50.718;-2.460;2024-03-08T00:10:08;32.90;0.00
74420;DHT22;62855;50.718;-2.460;2024-03-08T00:13:07;32.90;0.00
74420;DHT22;62855;50.718;-2.460;2024-03-08T00:16:06;32.72;0.00
74420;DHT22;62855;50.718;-2.460;2024-03-08T00:19:06;32.72;0.00
74420;DHT22;62855;50.718;-2.460;2024-03-08T00:22:05;32.72;1.00
74420;DHT22;62855;50.718;-2.460;2024-03-08T00:25:07;32.72;1.00
74420;DHT22;62855;50.718;-2.460;2024-03-08T00:28:06;32.72;1.00
74420;DHT22;62855;50.718;-2.460;2024-03-08T00:31:05;32.72;1.00
74420;DHT22;62855;50.718;-2.460;2024-03-08T00:34:05;32.54;1.00
74420;DHT22;62855;50.718;-2.460;2024-03-08T00:37:06;32.54;1.00
74420;DHT22;62855;50.718;-2.460;2024-03-08T00:40:07;32.54;1.00
74420;DHT22;62855;50.718;-2.460;2024-03-08T00:43:06;32.54;1.00
74420;DHT22;62855;50.718;-2.460;2024-03-08T00:46:06;32.54;1.00
74420;DHT22;62855;50.718;-2.460;2024-03-08T00:49:06;32.36;1.00
74420;DHT22;62855;50.718;-2.460;2024-03-08T00:52:06;32.36;1.00
74420;DHT22;62855;50.718;-2.460;2024-03-08T00:55:06;32.36;1.00
74420;DHT22;62855;50.718;-2.460;2024-03-08T00:58:06;32.36;1.00
74420;DHT22;62855;50.718;-2.460;2024-03-08T01:01:07;32.36;1.00
74420;DHT22;62855;50.718;-2.460;2024-03-08T01:04:06;32.36;1.00
74420;DHT22;62855;50.718;-2.460;2024-03-08T01:07:05;32.36;1.00
74420;DHT22;62855;50.718;-2.460;2024-03-08T01:10:06;32.36;1.00
74420;DHT22;62855;50.718;-2.460;2024-03-08T01:13:05;32.18;1.00
74420;DHT22;62855;50.718;-2.460;2024-03-08T01:16:06;32.18;1.00
74420;DHT22;62855;50.718;-2.460;2024-03-08T01:19:06;32.18;1.00
74420;DHT22;62855;50.718;-2.460;2024-03-08T01:22:06;32.18;1.00
74420;DHT22;62855;50.718;-2.460;2024-03-08T01:25:06;32.18;1.00
74420;DHT22;62855;50.718;-2.460;2024-03-08T01:28:05;32.18;1.00
74420;DHT22;62855;50.718;-2.460;2024-03-08T01:31:06;32.18;1.00
74420;DHT22;62855;50.718;-2.460;2024-03-08T01:34:06;32.18;1.00
74420;DHT22;62855;50.718;-2.460;2024-03-08T01:37:06;32.18;1.00
74420;DHT22;62855;50.718;-2.460;2024-03-08T01:40:07;32.18;1.00
74420;DHT22;62855;50.718;-2.460;2024-03-08T01:43:17;32.18;1.00
74420;DHT22;62855;50.718;-2.460;2024-03-08T01:46:05;32.00;1.00
74420;DHT22;62855;50.718;-2.460;2024-03-08T01:49:06;32.00;2.00
74420;DHT22;62855;50.718;-2.460;2024-03-08T01:52:06;32.00;2.00
74420;DHT22;62855;50.718;-2.460;2024-03-08T01:55:06;32.00;2.00
74420;DHT22;62855;50.718;-2.460;2024-03-08T01:58:06;32.00;2.00
74420;DHT22;62855;50.718;-2.460;2024-03-08T02:01:06;32.00;2.00
74420;DHT22;62855;50.718;-2.460;2024-03-08T02:04:06;32.00;2.00
74420;DHT22;62855;50.718;-2.460;2024-03-08T02:07:06;32.00;2.00
74420;DHT22;62855;50.718;-2.460;2024-03-08T02:10:07;32.00;2.00
74420;DHT22;62855;50.718;-2.460;2024-03-08T02:13:06;32.00;2.00
74420;DHT22;62855;50.718;-2.460;2024-03-08T02:16:06;33.62;2.00
74420;DHT22;62855;50.718;-2.460;2024-03-08T02:19:06;33.62;2.00
74420;DHT22;62855;50.718;-2.460;2024-03-08T02:22:06;33.62;2.00
74420;DHT22;62855;50.718;-2.460;2024-03-08T02:25:07;33.62;2.00
74420;DHT22;62855;50.718;-2.460;2024-03-08T02:28:06;33.62;2.00
74420;DHT22;62855;50.718;-2.460;2024-03-08T02:31:08;33.62;2.00
74420;DHT22;62855;50.718;-2.460;2024-03-08T02:34:06;33.62;2.00
74420;DHT22;62855;50.718;-2.460;2024-03-08T02:37:05;33.62;2.00
74420;DHT22;62855;50.718;-2.460;2024-03-08T02:40:06;33.62;2.00
74420;DHT22;62855;50.718;-2.460;2024-03-08T02:43:05;33.62;2.00
74420;DHT22;62855;50.718;-2.460;2024-03-08T02:46:05;33.62;2.00
74420;DHT22;62855;50.718;-2.460;2024-03-08T02:49:06;33.44;2.00
74420;DHT22;62855;50.718;-2.460;2024-03-08T02:52:06;33.62;2.00
74420;DHT22;62855;50.718;-2.460;2024-03-08T02:55:06;33.62;2.00
74420;DHT22;62855;50.718;-2.460;2024-03-08T02:58:05;33.62;2.00
74420;DHT22;62855;50.718;-2.460;2024-03-08T03:01:05;33.62;2.00
74420;DHT22;62855;50.718;-2.460;2024-03-08T03:04:05;33.62;2.00
74420;DHT22;62855;50.718;-2.460;2024-03-08T03:07:05;33.62;2.00
74420;DHT22;62855;50.718;-2.460;2024-03-08T03:10:07;33.62;2.00
74420;DHT22;62855;50.718;-2.460;2024-03-08T03:13:05;33.62;2.00
74420;DHT22;62855;50.718;-2.460;2024-03-08T03:16:05;33.44;2.00
74420;DHT22;62855;50.718;-2.460;2024-03-08T03:19:06;33.44;2.00
74420;DHT22;62855;50.718;-2.460;2024-03-08T03:22:06;33.44;2.00
74420;DHT22;62855;50.718;-2.460;2024-03-08T03:25:07;33.44;2.00
74420;DHT22;62855;50.718;-2.460;2024-03-08T03:28:06;33.44;2.00
74420;DHT22;62855;50.718;-2.460;2024-03-08T03:31:06;33.44;2.00
74420;DHT22;62855;50.718;-2.460;2024-03-08T03:34:05;33.44;2.00
74420;DHT22;62855;50.718;-2.460;2024-03-08T03:37:06;33.44;2.00
74420;DHT22;62855;50.718;-2.460;2024-03-08T03:40:07;33.44;2.00
74420;DHT22;62855;50.718;-2.460;2024-03-08T03:43:06;33.44;2.00
74420;DHT22;62855;50.718;-2.460;2024-03-08T03:46:06;33.44;2.00
74420;DHT22;62855;50.718;-2.460;2024-03-08T03:49:06;33.44;2.00
74420;DHT22;62855;50.718;-2.460;2024-03-08T03:52:06;33.44;2.00
74420;DHT22;62855;50.718;-2.460;2024-03-08T03:55:06;33.26;2.00
74420;DHT22;62855;50.718;-2.460;2024-03-08T03:58:05;33.26;2.00
74420;DHT22;62855;50.718;-2.460;2024-03-08T04:01:05;33.26;2.00
74420;DHT22;62855;50.718;-2.460;2024-03-08T04:04:05;33.26;2.00
74420;DHT22;62855;50.718;-2.460;2024-03-08T04:07:05;33.26;2.00
74420;DHT22;62855;50.718;-2.460;2024-03-08T04:10:08;33.08;2.00
74420;DHT22;62855;50.718;-2.460;2024-03-08T04:13:06;33.08;2.00
74420;DHT22;62855;50.718;-2.460;2024-03-08T04:16:06;33.08;2.00
74420;DHT22;62855;50.718;-2.460;2024-03-08T04:19:06;33.08;2.00
74420;DHT22;62855;50.718;-2.460;2024-03-08T04:22:06;33.08;2.00
74420;DHT22;62855;50.718;-2.460;2024-03-08T04:25:06;33.08;2.00
74420;DHT22;62855;50.718;-2.460;2024-03-08T04:29:06;33.08;2.00
74420;DHT22;62855;50.718;-2.460;2024-03-08T04:32:06;33.08;2.00
74420;DHT22;62855;50.718;-2.460;2024-03-08T04:35:06;33.08;2.00
74420;DHT22;62855;50.718;-2.460;2024-03-08T04:38:06;33.08;2.00
74420;DHT22;62855;50.718;-2.460;2024-03-08T04:41:05;33.08;2.00
74420;DHT22;62855;50.718;-2.460;2024-03-08T04:44:05;33.08;2.00
74420;DHT22;62855;50.718;-2.460;2024-03-08T04:47:06;33.08;2.00
74420;DHT22;62855;50.718;-2.460;2024-03-08T04:50:06;33.08;2.00
74420;DHT22;62855;50.718;-2.460;2024-03-08T04:53:06;33.08;2.00
74420;DHT22;62855;50.718;-2.460;2024-03-08T04:56:06;32.90;2.00
74420;DHT22;62855;50.718;-2.460;2024-03-08T04:59:06;32.90;2.00
74420;DHT22;62855;50.718;-2.460;2024-03-08T05:02:06;32.90;2.00
74420;DHT22;62855;50.718;-2.460;2024-03-08T05:05:07;32.90;2.00
74420;DHT22;62855;50.718;-2.460;2024-03-08T05:08:06;32.90;2.00
74420;DHT22;62855;50.718;-2.460;2024-03-08T05:11:06;32.90;2.00
74420;DHT22;62855;50.718;-2.460;2024-03-08T05:14:06;32.90;2.00
74420;DHT22;62855;50.718;-2.460;2024-03-08T05:17:05;32.90;3.00
74420;DHT22;62855;50.718;-2.460;2024-03-08T05:20:07;32.90;3.00
74420;DHT22;62855;50.718;-2.460;2024-03-08T05:23:07;32.90;3.00
74420;DHT22;62855;50.718;-2.460;2024-03-08T05:26:05;32.90;3.00
74420;DHT22;62855;50.718;-2.460;2024-03-08T05:29:06;32.90;3.00
74420;DHT22;62855;50.718;-2.460;2024-03-08T05:32:06;32.90;3.00
74420;DHT22;62855;50.718;-2.460;2024-03-08T05:35:08;32.90;3.00
74420;DHT22;62855;50.718;-2.460;2024-03-08T05:38:06;32.90;3.00
74420;DHT22;62855;50.718;-2.460;2024-03-08T05:41:05;32.90;3.00
74420;DHT22;62855;50.718;-2.460;2024-03-08T05:44:05;32.90;3.00
74420;DHT22;62855;50.718;-2.460;2024-03-08T05:47:06;32.90;3.00
74420;DHT22;62855;50.718;-2.460;2024-03-08T05:50:07;32.90;3.00
74420;DHT22;62855;50.718;-2.460;2024-03-08T05:53:05;32.90;3.00
74420;DHT22;62855;50.718;-2.460;2024-03-08T05:56:06;32.90;3.00
74420;DHT22;62855;50.718;-2.460;2024-03-08T05:59:06;32.90;3.00
74420;DHT22;62855;50.718;-2.460;2024-03-08T06:02:05;32.90;3.00
74420;DHT22;62855;50.718;-2.460;2024-03-08T06:05:07;32.90;3.00
74420;DHT22;62855;50.718;-2.460;2024-03-08T06:08:06;32.90;3.00
74420;DHT22;62855;50.718;-2.460;2024-03-08T06:11:06;32.90;3.00
74420;DHT22;62855;50.718;-2.460;2024-03-08T06:14:06;32.90;3.00
74420;DHT22;62855;50.718;-2.460;2024-03-08T06:17:06;32.90;3.00
74420;DHT22;62855;50.718;-2.460;2024-03-08T06:20:07;32.90;3.00
74420;DHT22;62855;50.718;-2.460;2024-03-08T06:23:06;32.90;3.00
74420;DHT22;62855;50.718;-2.460;2024-03-08T06:26:06;32.72;3.00
74420;DHT22;62855;50.718;-2.460;2024-03-08T06:29:06;32.72;3.00
74420;DHT22;62855;50.718;-2.460;2024-03-08T06:32:06;32.72;3.00
74420;DHT22;62855;50.718;-2.460;2024-03-08T06:35:06;32.72;3.00
74420;DHT22;62855;50.718;-2.460;2024-03-08T06:38:05;32.72;3.00
74420;DHT22;62855;50.718;-2.460;2024-03-08T06:41:05;32.72;3.00
74420;DHT22;62855;50.718;-2.460;2024-03-08T06:44:06;32.72;3.00
74420;DHT22;62855;50.718;-2.460;2024-03-08T06:47:06;32.72;3.00
74420;DHT22;62855;50.718;-2.460;2024-03-08T06:50:06;32.72;2.00
74420;DHT22;62855;50.718;-2.460;2024-03-08T06:53:05;32.72;2.00
74420;DHT22;62855;50.718;-2.460;2024-03-08T06:56:06;32.72;2.00
74420;DHT22;62855;50.718;-2.460;2024-03-08T06:59:06;32.36;0.00
74420;DHT22;62855;50.718;-2.460;2024-03-08T07:02:06;32.36;0.00
74420;DHT22;62855;50.718;-2.460;2024-03-08T07:05:06;32.36;0.00
74420;DHT22;62855;50.718;-2.460;2024-03-08T07:08:06;32.36;0.00
74420;DHT22;62855;50.718;-2.460;2024-03-08T07:11:06;32.36;0.00
74420;DHT22;62855;50.718;-2.460;2024-03-08T07:14:05;32.36;0.00
74420;DHT22;62855;50.718;-2.460;2024-03-08T07:17:06;32.54;0.00
74420;DHT22;62855;50.718;-2.460;2024-03-08T07:21:05;32.54;0.00
74420;DHT22;62855;50.718;-2.460;2024-03-08T07:24:06;32.54;0.00
74420;DHT22;62855;50.718;-2.460;2024-03-08T07:27:06;32.54;0.00
74420;DHT22;62855;50.718;-2.460;2024-03-08T07:30:06;32.54;0.00
74420;DHT22;62855;50.718;-2.460;2024-03-08T07:33:06;32.72;0.00
74420;DHT22;62855;50.718;-2.460;2024-03-08T07:36:05;32.72;0.00
74420;DHT22;62855;50.718;-2.460;2024-03-08T07:42:05;32.90;2.00
74420;DHT22;62855;50.718;-2.460;2024-03-08T07:45:08;32.90;2.00
74420;DHT22;62855;50.718;-2.460;2024-03-08T07:48:07;32.90;2.00
74420;DHT22;62855;50.718;-2.460;2024-03-08T07:51:05;32.90;2.00
74420;DHT22;62855;50.718;-2.460;2024-03-08T07:54:05;32.90;2.00
74420;DHT22;62855;50.718;-2.460;2024-03-08T07:57:06;32.90;2.00
74420;DHT22;62855;50.718;-2.460;2024-03-08T08:00:06;32.90;2.00
74420;DHT22;62855;50.718;-2.460;2024-03-08T08:03:06;32.90;2.00
74420;DHT22;62855;50.718;-2.460;2024-03-08T08:06:06;33.08;2.00
74420;DHT22;62855;50.718;-2.460;2024-03-08T08:09:06;33.08;2.00
74420;DHT22;62855;50.718;-2.460;2024-03-08T08:15:06;33.08;2.00
74420;DHT22;62855;50.718;-2.460;2024-03-08T08:18:06;33.08;2.00
74420;DHT22;62855;50.718;-2.460;2024-03-08T08:21:05;33.26;2.00
74420;DHT22;62855;50.718;-2.460;2024-03-08T08:24:06;33.26;2.00
74420;DHT22;62855;50.718;-2.460;2024-03-08T08:27:05;33.26;2.00
74420;DHT22;62855;50.718;-2.460;2024-03-08T08:30:06;33.44;1.00
74420;DHT22;62855;50.718;-2.460;2024-03-08T08:33:06;33.44;1.00
74420;DHT22;62855;50.718;-2.460;2024-03-08T08:36:06;33.44;1.00
74420;DHT22;62855;50.718;-2.460;2024-03-08T08:39:05;33.62;1.00
74420;DHT22;62855;50.718;-2.460;2024-03-08T08:42:05;33.62;1.00
74420;DHT22;62855;50.718;-2.460;2024-03-08T08:45:07;32.00;1.00
74420;DHT22;62855;50.718;-2.460;2024-03-08T08:48:06;32.18;1.00
74420;DHT22;62855;50.718;-2.460;2024-03-08T08:51:06;32.36;1.00
74420;DHT22;62855;50.718;-2.460;2024-03-08T08:54:06;32.36;1.00
74420;DHT22;62855;50.718;-2.460;2024-03-08T08:57:06;32.54;1.00
74420;DHT22;62855;50.718;-2.460;2024-03-08T09:00:06;32.72;0.00
74420;DHT22;62855;50.718;-2.460;2024-03-08T09:03:05;32.90;0.00
74420;DHT22;62855;50.718;-2.460;2024-03-08T09:06:06;32.90;0.00
74420;DHT22;62855;50.718;-2.460;2024-03-08T09:09:06;32.90;0.00
74420;DHT22;62855;50.718;-2.460;2024-03-08T09:12:47;33.08;0.00
74420;DHT22;62855;50.718;-2.460;2024-03-08T09:15:06;33.08;0.00
74420;DHT22;62855;50.718;-2.460;2024-03-08T09:18:05;33.08;0.00
74420;DHT22;62855;50.718;-2.460;2024-03-08T09:21:06;33.26;0.00
74420;DHT22;62855;50.718;-2.460;2024-03-08T09:24:06;33.26;0.00
74420;DHT22;62855;50.718;-2.460;2024-03-08T09:27:05;33.44;0.00
74420;DHT22;62855;50.718;-2.460;2024-03-08T09:30:06;33.44;9.00
74420;DHT22;62855;50.718;-2.460;2024-03-08T09:33:06;33.62;9.00
74420;DHT22;62855;50.718;-2.460;2024-03-08T09:36:06;32.00;9.00
74420;DHT22;62855;50.718;-2.460;2024-03-08T09:39:06;32.18;9.00
74420;DHT22;62855;50.718;-2.460;2024-03-08T09:42:06;32.36;9.00
74420;DHT22;62855;50.718;-2.460;2024-03-08T09:45:09;32.36;9.00
74420;DHT22;62855;50.718;-2.460;2024-03-08T09:48:09;32.54;8.00
74420;DHT22;62855;50.718;-2.460;2024-03-08T09:51:27;32.72;8.00
74420;DHT22;62855;50.718;-2.460;2024-03-08T09:54:06;32.90;7.00
74420;DHT22;62855;50.718;-2.460;2024-03-08T09:57:06;33.08;7.00
74420;DHT22;62855;50.718;-2.460;2024-03-08T10:00:07;33.26;7.00
74420;DHT22;62855;50.718;-2.460;2024-03-08T10:03:05;33.44;7.00
74420;DHT22;62855;50.718;-2.460;2024-03-08T10:09:06;33.44;6.00
74420;DHT22;62855;50.718;-2.460;2024-03-08T10:12:07;32.00;5.00
74420;DHT22;62855;50.718;-2.460;2024-03-08T10:15:06;33.62;5.00
74420;DHT22;62855;50.718;-2.460;2024-03-08T10:18:05;32.00;4.00
74420;DHT22;62855;50.718;-2.460;2024-03-08T10:21:07;32.18;5.00
74420;DHT22;62855;50.718;-2.460;2024-03-08T10:24:07;32.36;5.00
74420;DHT22;62855;50.718;-2.460;2024-03-08T10:27:05;32.36;4.00
74420;DHT22;62855;50.718;-2.460;2024-03-08T10:30:12;32.36;3.00
74420;DHT22;62855;50.718;-2.460;2024-03-08T10:33:05;32.72;4.00
74420;DHT22;62855;50.718;-2.460;2024-03-08T10:36:07;32.90;4.00
74420;DHT22;62855;50.718;-2.460;2024-03-08T10:39:10;33.08;3.00
74420;DHT22;62855;50.718;-2.460;2024-03-08T10:42:09;33.08;2.00
74420;DHT22;62855;50.718;-2.460;2024-03-08T10:45:12;33.26;2.00
74420;DHT22;62855;50.718;-2.460;2024-03-08T10:48:19;33.26;1.00
74420;DHT22;62855;50.718;-2.460;2024-03-08T10:51:06;33.44;1.00
74420;DHT22;62855;50.718;-2.460;2024-03-08T10:54:07;33.62;8.00
74420;DHT22;62855;50.718;-2.460;2024-03-08T10:57:06;32.00;8.00
74420;DHT22;62855;50.718;-2.460;2024-03-08T11:00:07;32.18;7.00
74420;DHT22;62855;50.718;-2.460;2024-03-08T11:03:06;32.00;6.00
74420;DHT22;62855;50.718;-2.460;2024-03-08T11:06:06;32.00;6.00
74420;DHT22;62855;50.718;-2.460;2024-03-08T11:09:08;32.18;6.00
74420;DHT22;62855;50.718;-2.460;2024-03-08T11:12:20;32.36;7.00
74420;DHT22;62855;50.718;-2.460;2024-03-08T11:15:10;32.72;7.00
74420;DHT22;62855;50.718;-2.460;2024-03-08T11:18:06;32.72;6.00
74420;DHT22;62855;50.718;-2.460;2024-03-08T11:21:08;32.90;6.00
74420;DHT22;62855;50.718;-2.460;2024-03-08T11:24:08;33.26;6.00
74420;DHT22;62855;50.718;-2.460;2024-03-08T11:27:06;33.26;6.00
74420;DHT22;62855;50.718;-2.460;2024-03-08T11:30:07;33.44;6.00
74420;DHT22;62855;50.718;-2.460;2024-03-08T11:33:11;33.44;5.00
74420;DHT22;62855;50.718;-2.460;2024-03-08T11:37:05;32.18;5.00
74420;DHT22;62855;50.718;-2.460;2024-03-08T11:40:12;32.54;5.00
74420;DHT22;62855;50.718;-2.460;2024-03-08T11:43:06;32.72;4.00
74420;DHT22;62855;50.718;-2.460;2024-03-08T11:46:07;32.90;4.00
74420;DHT22;62855;50.718;-2.460;2024-03-08T11:49:06;33.08;3.00
74420;DHT22;62855;50.718;-2.460;2024-03-08T11:52:05;33.08;2.00
74420;DHT22;62855;50.718;-2.460;2024-03-08T11:55:07;33.08;2.00
74420;DHT22;62855;50.718;-2.460;2024-03-08T11:58:06;33.08;2.00
74420;DHT22;62855;50.718;-2.460;2024-03-08T12:01:06;33.26;2.00
74420;DHT22;62855;50.718;-2.460;2024-03-08T12:04:05;33.26;2.00
74420;DHT22;62855;50.718;-2.460;2024-03-08T12:07:09;33.26;2.00
74420;DHT22;62855;50.718;-2.460;2024-03-08T12:10:15;33.26;1.00
74420;DHT22;62855;50.718;-2.460;2024-03-08T12:13:07;33.08;1.00
74420;DHT22;62855;50.718;-2.460;2024-03-08T12:16:06;33.08;1.00
74420;DHT22;62855;50.718;-2.460;2024-03-08T12:19:06;32.90;1.00
74420;DHT22;62855;50.718;-2.460;2024-03-08T12:22:08;32.90;1.00
74420;DHT22;62855;50.718;-2.460;2024-03-08T12:25:06;33.08;1.00
74420;DHT22;62855;50.718;-2.460;2024-03-08T12:28:09;33.26;2.00
74420;DHT22;62855;50.718;-2.460;2024-03-08T12:31:07;33.62;2.00
74420;DHT22;62855;50.718;-2.460;2024-03-08T12:34:05;33.62;2.00
74420;DHT22;62855;50.718;-2.460;2024-03-08T12:37:06;33.62;2.00
74420;DHT22;62855;50.718;-2.460;2024-03-08T12:40:07;33.44;1.00
74420;DHT22;62855;50.718;-2.460;2024-03-08T12:43:06;33.26;1.00
74420;DHT22;62855;50.718;-2.460;2024-03-08T12:46:06;33.08;1.00
74420;DHT22;62855;50.718;-2.460;2024-03-08T12:49:07;32.90;1.00
74420;DHT22;62855;50.718;-2.460;2024-03-08T12:52:09;32.90;2.00
74420;DHT22;62855;50.718;-2.460;2024-03-08T12:55:06;33.08;2.00
74420;DHT22;62855;50.718;-2.460;2024-03-08T12:58:06;33.08;1.00
74420;DHT22;62855;50.718;-2.460;2024-03-08T13:01:06;33.08;1.00
74420;DHT22;62855;50.718;-2.460;2024-03-08T13:04:06;33.08;1.00
74420;DHT22;62855;50.718;-2.460;2024-03-08T13:07:05;33.08;1.00
74420;DHT22;62855;50.718;-2.460;2024-03-08T13:10:07;33.26;1.00
74420;DHT22;62855;50.718;-2.460;2024-03-08T13:13:06;33.26;1.00
74420;DHT22;62855;50.718;-2.460;2024-03-08T13:16:06;33.26;0.00
74420;DHT22;62855;50.718;-2.460;2024-03-08T13:19:05;33.44;0.00
74420;DHT22;62855;50.718;-2.460;2024-03-08T13:22:06;33.62;0.00
74420;DHT22;62855;50.718;-2.460;2024-03-08T13:25:07;32.00;0.00
74420;DHT22;62855;50.718;-2.460;2024-03-08T13:28:06;32.18;0.00
74420;DHT22;62855;50.718;-2.460;2024-03-08T13:31:06;32.36;0.00
74420;DHT22;62855;50.718;-2.460;2024-03-08T13:34:06;32.54;8.00
74420;DHT22;62855;50.718;-2.460;2024-03-08T13:37:06;32.72;8.00
74420;DHT22;62855;50.718;-2.460;2024-03-08T13:40:07;33.08;7.00
74420;DHT22;62855;50.718;-2.460;2024-03-08T13:43:06;33.26;4.00
74420;DHT22;62855;50.718;-2.460;2024-03-08T13:46:06;33.26;4.00
74420;DHT22;62855;50.718;-2.460;2024-03-08T13:49:06;33.44;4.00
74420;DHT22;62855;50.718;-2.460;2024-03-08T13:52:06;32.00;3.00
74420;DHT22;62855;50.718;-2.460;2024-03-08T13:55:06;32.18;3.00
74420;DHT22;62855;50.718;-2.460;2024-03-08T13:58:05;32.36;2.00
74420;DHT22;62855;50.718;-2.460;2024-03-08T14:01:05;32.36;2.00
74420;DHT22;62855;50.718;-2.460;2024-03-08T14:04:06;32.36;1.00
74420;DHT22;62855;50.718;-2.460;2024-03-08T14:07:06;32.36;0.00
74420;DHT22;62855;50.718;-2.460;2024-03-08T14:10:06;32.36;0.00
74420;DHT22;62855;50.718;-2.460;2024-03-08T14:13:05;32.36;0.00
74420;DHT22;62855;50.718;-2.460;2024-03-08T14:16:06;32.36;0.00
74420;DHT22;62855;50.718;-2.460;2024-03-08T14:19:06;32.36;0.00
74420;DHT22;62855;50.718;-2.460;2024-03-08T14:22:06;32.36;0.00
74420;DHT22;62855;50.718;-2.460;2024-03-08T14:25:07;32.36;0.00
74420;DHT22;62855;50.718;-2.460;2024-03-08T14:28:05;32.54;0.00
74420;DHT22;62855;50.718;-2.460;2024-03-08T14:31:05;32.72;0.00
74420;DHT22;62855;50.718;-2.460;2024-03-08T14:34:06;32.72;0.00
74420;DHT22;62855;50.718;-2.460;2024-03-08T14:37:06;32.72;0.00
74420;DHT22;62855;50.718;-2.460;2024-03-08T14:40:06;32.72;0.00
74420;DHT22;62855;50.718;-2.460;2024-03-08T14:43:05;32.72;0.00
74420;DHT22;62855;50.718;-2.460;2024-03-08T14:46:05;32.72;0.00
74420;DHT22;62855;50.718;-2.460;2024-03-08T14:49:05;32.90;0.00
74420;DHT22;62855;50.718;-2.460;2024-03-08T14:52:06;32.72;0.00
74420;DHT22;62855;50.718;-2.460;2024-03-08T14:55:06;32.90;0.00
74420;DHT22;62855;50.718;-2.460;2024-03-08T14:58:06;32.90;0.00
74420;DHT22;62855;50.718;-2.460;2024-03-08T15:01:05;32.90;0.00
74420;DHT22;62855;50.718;-2.460;2024-03-08T15:04:05;32.90;0.00
74420;DHT22;62855;50.718;-2.460;2024-03-08T15:07:06;32.90;0.00
74420;DHT22;62855;50.718;-2.460;2024-03-08T15:10:07;32.72;0.00
74420;DHT22;62855;50.718;-2.460;2024-03-08T15:13:05;32.72;0.00
74420;DHT22;62855;50.718;-2.460;2024-03-08T15:16:06;32.72;0.00
74420;DHT22;62855;50.718;-2.460;2024-03-08T15:19:06;32.90;1.00
74420;DHT22;62855;50.718;-2.460;2024-03-08T15:22:05;32.90;0.00
74420;DHT22;62855;50.718;-2.460;2024-03-08T15:25:06;32.90;0.00
74420;DHT22;62855;50.718;-2.460;2024-03-08T15:28:05;32.90;0.00
74420;DHT22;62855;50.718;-2.460;2024-03-08T15:31:06;32.90;0.00
74420;DHT22;62855;50.718;-2.460;2024-03-08T15:34:05;32.90;1.00
74420;DHT22;62855;50.718;-2.460;2024-03-08T15:37:06;32.72;1.00
74420;DHT22;62855;50.718;-2.460;2024-03-08T15:40:07;32.72;1.00
74420;DHT22;62855;50.718;-2.460;2024-03-08T15:43:06;32.54;1.00
74420;DHT22;62855;50.718;-2.460;2024-03-08T15:46:06;32.36;1.00
74420;DHT22;62855;50.718;-2.460;2024-03-08T15:49:06;32.36;1.00
74420;DHT22;62855;50.718;-2.460;2024-03-08T15:52:06;32.18;2.00
74420;DHT22;62855;50.718;-2.460;2024-03-08T15:55:06;32.18;2.00
74420;DHT22;62855;50.718;-2.460;2024-03-08T15:58:06;32.18;3.00
74420;DHT22;62855;50.718;-2.460;2024-03-08T16:01:06;32.00;3.00
74420;DHT22;62855;50.718;-2.460;2024-03-08T16:04:06;32.00;3.00
74420;DHT22;62855;50.718;-2.460;2024-03-08T16:07:05;32.00;3.00
74420;DHT22;62855;50.718;-2.460;2024-03-08T16:10:06;32.00;3.00
74420;DHT22;62855;50.718;-2.460;2024-03-08T16:13:05;32.00;3.00
74420;DHT22;62855;50.718;-2.460;2024-03-08T16:16:06;33.62;3.00
74420;DHT22;62855;50.718;-2.460;2024-03-08T16:19:05;33.62;3.00
74420;DHT22;62855;50.718;-2.460;2024-03-08T16:22:05;33.62;3.00
74420;DHT22;62855;50.718;-2.460;2024-03-08T16:28:06;33.44;4.00
74420;DHT22;62855;50.718;-2.460;2024-03-08T16:31:05;33.44;4.00
74420;DHT22;62855;50.718;-2.460;2024-03-08T16:34:06;33.26;4.00
74420;DHT22;62855;50.718;-2.460;2024-03-08T16:37:06;33.26;5.00
74420;DHT22;62855;50.718;-2.460;2024-03-08T16:40:07;33.08;5.00
74420;DHT22;62855;50.718;-2.460;2024-03-08T16:43:06;32.90;5.00
74420;DHT22;62855;50.718;-2.460;2024-03-08T16:46:05;32.72;6.00
74420;DHT22;62855;50.718;-2.460;2024-03-08T16:49:05;32.72;6.00
74420;DHT22;62855;50.718;-2.460;2024-03-08T16:52:25;32.54;6.00
74420;DHT22;62855;50.718;-2.460;2024-03-08T16:55:06;32.54;6.00
74420;DHT22;62855;50.718;-2.460;2024-03-08T16:58:05;32.36;7.00
74420;DHT22;62855;50.718;-2.460;2024-03-08T17:01:06;32.36;7.00
74420;DHT22;62855;50.718;-2.460;2024-03-08T17:04:06;32.18;7.00
74420;DHT22;62855;50.718;-2.460;2024-03-08T17:07:05;32.18;7.00
74420;DHT22;62855;50.718;-2.460;2024-03-08T17:11:05;32.18;7.00
74420;DHT22;62855;50.718;-2.460;2024-03-08T17:14:06;32.00;8.00
74420;DHT22;62855;50.718;-2.460;2024-03-08T17:17:06;33.62;8.00
74420;DHT22;62855;50.718;-2.460;2024-03-08T17:20:07;33.62;9.00
74420;DHT22;62855;50.718;-2.460;2024-03-08T17:23:06;33.44;0.00
74420;DHT22;62855;50.718;-2.460;2024-03-08T17:26:05;33.44;0.00
74420;DHT22;62855;50.718;-2.460;2024-03-08T17:29:06;33.26;1.00
74420;DHT22;62855;50.718;-2.460;2024-03-08T17:32:06;33.08;1.00
74420;DHT22;62855;50.718;-2.460;2024-03-08T17:35:05;32.90;1.00
74420;DHT22;62855;50.718;-2.460;2024-03-08T17:38:06;32.72;2.00
74420;DHT22;62855;50.718;-2.460;2024-03-08T17:41:06;32.72;2.00
74420;DHT22;62855;50.718;-2.460;2024-03-08T17:44:06;32.54;2.00
74420;DHT22;62855;50.718;-2.460;2024-03-08T17:47:05;32.36;2.00
74420;DHT22;62855;50.718;-2.460;2024-03-08T17:50:07;32.18;3.00
74420;DHT22;62855;50.718;-2.460;2024-03-08T17:53:06;32.18;3.00
74420;DHT22;62855;50.718;-2.460;2024-03-08T17:56:06;32.00;3.00
74420;DHT22;62855;50.718;-2.460;2024-03-08T17:59:05;33.62;3.00
74420;DHT22;62855;50.718;-2.460;2024-03-08T18:02:06;33.62;4.00
74420;DHT22;62855;50.718;-2.460;2024-03-08T18:05:06;33.44;4.00
74420;DHT22;62855;50.718;-2.460;2024-03-08T18:08:06;33.26;4.00
74420;DHT22;62855;50.718;-2.460;2024-03-08T18:11:06;33.26;4.00
74420;DHT22;62855;50.718;-2.460;2024-03-08T18:14:06;33.26;5.00
74420;DHT22;62855;50.718;-2.460;2024-03-08T18:17:06;33.08;5.00
74420;DHT22;62855;50.718;-2.460;2024-03-08T18:20:07;33.08;5.00
74420;DHT22;62855;50.718;-2.460;2024-03-08T18:23:05;33.08;5.00
74420;DHT22;62855;50.718;-2.460;2024-03-08T18:26:05;32.90;5.00
74420;DHT22;62855;50.718;-2.460;2024-03-08T18:29:05;32.90;5.00
74420;DHT22;62855;50.718;-2.460;2024-03-08T18:32:06;32.90;6.00
74420;DHT22;62855;50.718;-2.460;2024-03-08T18:35:06;32.90;6.00
74420;DHT22;62855;50.718;-2.460;2024-03-08T18:38:06;33.08;6.00
74420;DHT22;62855;50.718;-2.460;2024-03-08T18:41:05;33.08;6.00
74420;DHT22;62855;50.718;-2.460;2024-03-08T18:44:06;33.08;6.00
74420;DHT22;62855;50.718;-2.460;2024-03-08T18:47:06;33.26;6.00
74420;DHT22;62855;50.718;-2.460;2024-03-08T18:50:07;33.26;6.00
74420;DHT22;62855;50.718;-2.460;2024-03-08T18:53:06;33.08;7.00
74420;DHT22;62855;50.718;-2.460;2024-03-08T18:56:06;33.08;7.00
74420;DHT22;62855;50.718;-2.460;2024-03-08T18:59:06;33.08;7.00
74420;DHT22;62855;50.718;-2.460;2024-03-08T19:02:06;33.08;7.00
74420;DHT22;62855;50.718;-2.460;2024-03-08T19:05:06;33.08;7.00
74420;DHT22;62855;50.718;-2.460;2024-03-08T19:08:06;33.08;7.00
74420;DHT22;62855;50.718;-2.460;2024-03-08T19:11:06;33.08;7.00